sensor_id;sensor_type;location;lat;lon;timestamp;P1;durP1;ratioP1;P2;durP2;ratioP2
24995;SDS011;13016;52.162;21.034;2024-01-16T00:04:06;2.60;;;1.70;;
24995;SDS011;13016;52.162;21.034;2024-01-16T00:10:07;2.70;;;1.50;;
24995;SDS011;13016;52.162;21.034;2024-01-16T00:16:08;2.00;;;1.40;;
24995;SDS011;13016;52.162;21.034;2024-01-16T00:22:08;1.40;;;1.20;;
24995;SDS011;13016;52.162;21.034;2024-01-16T00:28:08;2.60;;;1.70;;
24995;SDS011;13016;52.162;21.034;2024-01-16T00:34:09;3.30;;;1.50;;
24995;SDS011;13016;52.162;21.034;2024-01-16T00:40:09;2.60;;;1.50;;
24995;SDS011;13016;52.162;21.034;2024-01-16T00:46:10;2.30;;;1.50;;
24995;SDS011;13016;52.162;21.034;2024-01-16T00:52:10;2.90;;;1.80;;
24995;SDS011;13016;52.162;21.034;2024-01-16T00:58:11;5.10;;;1.70;;
24995;SDS011;13016;52.162;21.034;2024-01-16T01:04:11;2.40;;;1.40;;
24995;SDS011;13016;52.162;21.034;2024-01-16T01:10:11;2.80;;;1.50;;
24995;SDS011;13016;52.162;21.034;2024-01-16T01:16:12;1.70;;;1.40;;
24995;SDS011;13016;52.162;21.034;2024-01-16T01:22:12;2.90;;;1.60;;
24995;SDS011;13016;52.162;21.034;2024-01-16T01:28:12;2.30;;;1.30;;
24995;SDS011;13016;52.162;21.034;2024-01-16T01:34:12;2.70;;;1.70;;
24995;SDS011;13016;52.162;21.034;2024-01-16T01:40:15;2.50;;;1.70;;
24995;SDS011;13016;52.162;21.034;2024-01-16T01:46:17;2.60;;;1.70;;
24995;SDS011;13016;52.162;21.034;2024-01-16T01:52:18;2.60;;;1.70;;
24995;SDS011;13016;52.162;21.034;2024-01-16T01:58:19;1.50;;;1.40;;
24995;SDS011;13016;52.162;21.034;2024-01-16T02:04:20;2.80;;;1.50;;
24995;SDS011;13016;52.162;21.034;2024-01-16T02:10:21;1.70;;;1.10;;
24995;SDS011;13016;52.162;21.034;2024-01-16T02:16:22;1.90;;;1.60;;
24995;SDS011;13016;52.162;21.034;2024-01-16T02:22:23;2.50;;;1.90;;
24995;SDS011;13016;52.162;21.034;2024-01-16T02:28:26;8.00;;;1.70;;
24995;SDS011;13016;52.162;21.034;2024-01-16T02:34:26;3.00;;;1.90;;
24995;SDS011;13016;52.162;21.034;2024-01-16T02:40:26;2.60;;;1.60;;
24995;SDS011;13016;52.162;21.034;2024-01-16T02:46:26;2.50;;;1.60;;
24995;SDS011;13016;52.162;21.034;2024-01-16T02:52:27;2.70;;;1.40;;
24995;SDS011;13016;52.162;21.034;2024-01-16T02:58:27;2.00;;;1.50;;
24995;SDS011;13016;52.162;21.034;2024-01-16T03:04:29;3.80;;;1.30;;
24995;SDS011;13016;52.162;21.034;2024-01-16T03:10:29;2.30;;;1.50;;
24995;SDS011;13016;52.162;21.034;2024-01-16T03:16:30;2.90;;;1.20;;
24995;SDS011;13016;52.162;21.034;2024-01-16T03:28:31;2.10;;;1.40;;
24995;SDS011;13016;52.162;21.034;2024-01-16T03:34:31;2.40;;;1.60;;
24995;SDS011;13016;52.162;21.034;2024-01-16T03:40:32;3.40;;;1.70;;
24995;SDS011;13016;52.162;21.034;2024-01-16T03:46:32;3.20;;;1.40;;
24995;SDS011;13016;52.162;21.034;2024-01-16T03:52:38;3.90;;;1.50;;
24995;SDS011;13016;52.162;21.034;2024-01-16T03:58:39;2.20;;;1.70;;
24995;SDS011;13016;52.162;21.034;2024-01-16T04:04:40;3.20;;;1.60;;
24995;SDS011;13016;52.162;21.034;2024-01-16T04:10:40;1.80;;;1.50;;
24995;SDS011;13016;52.162;21.034;2024-01-16T04:16:40;2.90;;;1.70;;
24995;SDS011;13016;52.162;21.034;2024-01-16T04:22:41;3.80;;;2.10;;
24995;SDS011;13016;52.162;21.034;2024-01-16T04:28:41;3.50;;;1.70;;
24995;SDS011;13016;52.162;21.034;2024-01-16T04:34:41;3.90;;;1.70;;
24995;SDS011;13016;52.162;21.034;2024-01-16T04:40:42;4.00;;;1.80;;
24995;SDS011;13016;52.162;21.034;2024-01-16T04:46:42;3.30;;;2.00;;
24995;SDS011;13016;52.162;21.034;2024-01-16T04:52:43;3.20;;;1.70;;
24995;SDS011;13016;52.162;21.034;2024-01-16T04:58:43;3.30;;;1.90;;
24995;SDS011;13016;52.162;21.034;2024-01-16T05:04:43;5.00;;;2.00;;
24995;SDS011;13016;52.162;21.034;2024-01-16T05:10:44;3.90;;;2.20;;
24995;SDS011;13016;52.162;21.034;2024-01-16T05:16:44;3.60;;;1.90;;
24995;SDS011;13016;52.162;21.034;2024-01-16T05:22:44;6.90;;;2.70;;
24995;SDS011;13016;52.162;21.034;2024-01-16T05:28:45;6.30;;;2.40;;
24995;SDS011;13016;52.162;21.034;2024-01-16T05:34:45;3.00;;;2.20;;
24995;SDS011;13016;52.162;21.034;2024-01-16T05:40:45;5.30;;;2.20;;
24995;SDS011;13016;52.162;21.034;2024-01-16T05:46:46;5.60;;;2.80;;
24995;SDS011;13016;52.162;21.034;2024-01-16T05:52:46;5.60;;;2.30;;
24995;SDS011;13016;52.162;21.034;2024-01-16T05:58:46;4.50;;;2.50;;
24995;SDS011;13016;52.162;21.034;2024-01-16T06:04:47;8.40;;;2.50;;
24995;SDS011;13016;52.162;21.034;2024-01-16T06:10:47;4.70;;;2.90;;
24995;SDS011;13016;52.162;21.034;2024-01-16T06:16:47;5.20;;;2.80;;
24995;SDS011;13016;52.162;21.034;2024-01-16T06:22:48;5.30;;;2.60;;
24995;SDS011;13016;52.162;21.034;2024-01-16T06:28:48;5.80;;;3.00;;
24995;SDS011;13016;52.162;21.034;2024-01-16T06:34:51;7.70;;;2.90;;
24995;SDS011;13016;52.162;21.034;2024-01-16T06:40:52;5.80;;;2.90;;
24995;SDS011;13016;52.162;21.034;2024-01-16T06:46:52;4.90;;;2.60;;
24995;SDS011;13016;52.162;21.034;2024-01-16T06:52:52;9.70;;;3.40;;
24995;SDS011;13016;52.162;21.034;2024-01-16T06:58:52;10.00;;;3.20;;
24995;SDS011;13016;52.162;21.034;2024-01-16T07:04:52;7.80;;;3.60;;
24995;SDS011;13016;52.162;21.034;2024-01-16T07:10:53;7.30;;;3.40;;
24995;SDS011;13016;52.162;21.034;2024-01-16T07:16:53;8.60;;;4.00;;
24995;SDS011;13016;52.162;21.034;2024-01-16T07:22:53;6.60;;;2.80;;
24995;SDS011;13016;52.162;21.034;2024-01-16T07:28:54;8.30;;;2.90;;
24995;SDS011;13016;52.162;21.034;2024-01-16T07:34:54;7.30;;;2.70;;
24995;SDS011;13016;52.162;21.034;2024-01-16T07:40:54;5.70;;;3.40;;
24995;SDS011;13016;52.162;21.034;2024-01-16T07:46:54;9.20;;;3.30;;
24995;SDS011;13016;52.162;21.034;2024-01-16T07:52:55;7.40;;;3.10;;
24995;SDS011;13016;52.162;21.034;2024-01-16T07:58:55;5.80;;;2.80;;
24995;SDS011;13016;52.162;21.034;2024-01-16T08:04:55;3.20;;;1.90;;
24995;SDS011;13016;52.162;21.034;2024-01-16T08:10:56;4.00;;;2.10;;
24995;SDS011;13016;52.162;21.034;2024-01-16T08:16:56;2.70;;;1.50;;
24995;SDS011;13016;52.162;21.034;2024-01-16T08:23:14;5.00;;;1.50;;
24995;SDS011;13016;52.162;21.034;2024-01-16T08:29:15;2.60;;;1.70;;
24995;SDS011;13016;52.162;21.034;2024-01-16T08:35:15;2.50;;;1.50;;
24995;SDS011;13016;52.162;21.034;2024-01-16T08:41:15;2.50;;;1.50;;
24995;SDS011;13016;52.162;21.034;2024-01-16T08:47:16;3.00;;;1.50;;
24995;SDS011;13016;52.162;21.034;2024-01-16T08:53:16;4.90;;;1.80;;
24995;SDS011;13016;52.162;21.034;2024-01-16T08:59:16;5.40;;;2.00;;
24995;SDS011;13016;52.162;21.034;2024-01-16T09:05:17;3.40;;;1.90;;
24995;SDS011;13016;52.162;21.034;2024-01-16T09:11:17;7.80;;;2.60;;
24995;SDS011;13016;52.162;21.034;2024-01-16T09:17:17;2.70;;;1.70;;
24995;SDS011;13016;52.162;21.034;2024-01-16T09:23:17;6.60;;;2.00;;
24995;SDS011;13016;52.162;21.034;2024-01-16T09:29:18;3.30;;;1.80;;
24995;SDS011;13016;52.162;21.034;2024-01-16T09:35:18;4.90;;;2.40;;
24995;SDS011;13016;52.162;21.034;2024-01-16T09:41:18;4.10;;;2.10;;
24995;SDS011;13016;52.162;21.034;2024-01-16T09:47:18;3.20;;;1.90;;
24995;SDS011;13016;52.162;21.034;2024-01-16T09:53:19;23.40;;;13.10;;
24995;SDS011;13016;52.162;21.034;2024-01-16T09:59:19;7.20;;;1.90;;
24995;SDS011;13016;52.162;21.034;2024-01-16T10:05:20;2.10;;;1.40;;
24995;SDS011;13016;52.162;21.034;2024-01-16T10:11:21;3.00;;;1.70;;
24995;SDS011;13016;52.162;21.034;2024-01-16T10:17:21;2.90;;;1.90;;
24995;SDS011;13016;52.162;21.034;2024-01-16T10:23:31;4.00;;;2.30;;
24995;SDS011;13016;52.162;21.034;2024-01-16T10:36:16;4.70;;;2.50;;
24995;SDS011;13016;52.162;21.034;2024-01-16T10:42:17;7.20;;;3.00;;
24995;SDS011;13016;52.162;21.034;2024-01-16T10:48:17;7.40;;;3.30;;
24995;SDS011;13016;52.162;21.034;2024-01-16T10:54:17;5.60;;;3.10;;
24995;SDS011;13016;52.162;21.034;2024-01-16T11:00:18;6.40;;;3.10;;
24995;SDS011;13016;52.162;21.034;2024-01-16T11:06:20;22.70;;;11.60;;
24995;SDS011;13016;52.162;21.034;2024-01-16T11:12:23;5.60;;;3.00;;
24995;SDS011;13016;52.162;21.034;2024-01-16T11:18:26;8.00;;;4.00;;
24995;SDS011;13016;52.162;21.034;2024-01-16T11:25:06;7.00;;;3.10;;
24995;SDS011;13016;52.162;21.034;2024-01-16T11:37:33;6.50;;;3.50;;
24995;SDS011;13016;52.162;21.034;2024-01-16T11:43:50;9.00;;;3.60;;
24995;SDS011;13016;52.162;21.034;2024-01-16T11:49:52;6.50;;;3.60;;
24995;SDS011;13016;52.162;21.034;2024-01-16T12:02:20;6.30;;;3.40;;
24995;SDS011;13016;52.162;21.034;2024-01-16T12:08:23;7.30;;;3.60;;
24995;SDS011;13016;52.162;21.034;2024-01-16T12:20:29;5.10;;;2.90;;
24995;SDS011;13016;52.162;21.034;2024-01-16T12:26:30;7.20;;;3.70;;
24995;SDS011;13016;52.162;21.034;2024-01-16T12:32:31;6.10;;;2.90;;
24995;SDS011;13016;52.162;21.034;2024-01-16T12:38:31;5.20;;;3.20;;
24995;SDS011;13016;52.162;21.034;2024-01-16T12:44:31;6.70;;;3.00;;
24995;SDS011;13016;52.162;21.034;2024-01-16T12:50:32;4.90;;;3.00;;
24995;SDS011;13016;52.162;21.034;2024-01-16T12:56:32;5.00;;;3.00;;
24995;SDS011;13016;52.162;21.034;2024-01-16T13:02:32;6.10;;;3.10;;
24995;SDS011;13016;52.162;21.034;2024-01-16T13:08:33;8.70;;;3.10;;
24995;SDS011;13016;52.162;21.034;2024-01-16T13:14:33;4.80;;;2.70;;
24995;SDS011;13016;52.162;21.034;2024-01-16T13:20:33;6.20;;;3.10;;
24995;SDS011;13016;52.162;21.034;2024-01-16T13:26:36;4.80;;;3.10;;
24995;SDS011;13016;52.162;21.034;2024-01-16T13:32:36;10.10;;;3.90;;
24995;SDS011;13016;52.162;21.034;2024-01-16T13:38:37;4.70;;;2.70;;
24995;SDS011;13016;52.162;21.034;2024-01-16T13:44:37;10.10;;;2.80;;
24995;SDS011;13016;52.162;21.034;2024-01-16T13:50:37;5.90;;;3.10;;
24995;SDS011;13016;52.162;21.034;2024-01-16T13:56:37;4.60;;;2.80;;
24995;SDS011;13016;52.162;21.034;2024-01-16T14:02:38;4.50;;;2.90;;
24995;SDS011;13016;52.162;21.034;2024-01-16T14:08:42;7.80;;;2.40;;
24995;SDS011;13016;52.162;21.034;2024-01-16T14:14:42;5.00;;;2.80;;
24995;SDS011;13016;52.162;21.034;2024-01-16T14:20:43;5.30;;;2.70;;
24995;SDS011;13016;52.162;21.034;2024-01-16T14:26:43;4.30;;;2.50;;
24995;SDS011;13016;52.162;21.034;2024-01-16T14:32:44;5.10;;;2.60;;
24995;SDS011;13016;52.162;21.034;2024-01-16T14:38:45;6.60;;;2.40;;
24995;SDS011;13016;52.162;21.034;2024-01-16T14:44:45;5.60;;;2.40;;
24995;SDS011;13016;52.162;21.034;2024-01-16T14:50:48;5.50;;;3.00;;
24995;SDS011;13016;52.162;21.034;2024-01-16T14:56:49;3.60;;;2.70;;
24995;SDS011;13016;52.162;21.034;2024-01-16T15:02:49;8.30;;;3.50;;
24995;SDS011;13016;52.162;21.034;2024-01-16T15:14:50;7.00;;;3.30;;
24995;SDS011;13016;52.162;21.034;2024-01-16T15:20:50;7.70;;;3.80;;
24995;SDS011;13016;52.162;21.034;2024-01-16T15:26:51;6.10;;;3.10;;
24995;SDS011;13016;52.162;21.034;2024-01-16T15:32:51;9.10;;;3.20;;
24995;SDS011;13016;52.162;21.034;2024-01-16T15:39:04;7.40;;;3.90;;
24995;SDS011;13016;52.162;21.034;2024-01-16T15:45:08;8.80;;;4.20;;
24995;SDS011;13016;52.162;21.034;2024-01-16T15:51:08;10.70;;;4.80;;
24995;SDS011;13016;52.162;21.034;2024-01-16T15:57:09;11.30;;;5.10;;
24995;SDS011;13016;52.162;21.034;2024-01-16T16:03:09;10.20;;;5.60;;
24995;SDS011;13016;52.162;21.034;2024-01-16T16:09:10;25.60;;;12.70;;
24995;SDS011;13016;52.162;21.034;2024-01-16T16:15:10;16.30;;;6.20;;
24995;SDS011;13016;52.162;21.034;2024-01-16T16:21:23;13.50;;;6.70;;
24995;SDS011;13016;52.162;21.034;2024-01-16T16:27:24;13.70;;;6.50;;
24995;SDS011;13016;52.162;21.034;2024-01-16T16:33:25;13.20;;;6.00;;
24995;SDS011;13016;52.162;21.034;2024-01-16T16:39:26;12.00;;;5.60;;
24995;SDS011;13016;52.162;21.034;2024-01-16T16:45:26;11.10;;;5.70;;
24995;SDS011;13016;52.162;21.034;2024-01-16T16:51:27;11.50;;;5.80;;
24995;SDS011;13016;52.162;21.034;2024-01-16T16:57:27;12.90;;;6.10;;
24995;SDS011;13016;52.162;21.034;2024-01-16T17:03:28;14.00;;;5.90;;
24995;SDS011;13016;52.162;21.034;2024-01-16T17:09:28;12.90;;;6.90;;
24995;SDS011;13016;52.162;21.034;2024-01-16T17:15:28;16.70;;;8.40;;
24995;SDS011;13016;52.162;21.034;2024-01-16T17:21:28;18.00;;;8.20;;
24995;SDS011;13016;52.162;21.034;2024-01-16T17:27:29;14.20;;;7.20;;
24995;SDS011;13016;52.162;21.034;2024-01-16T17:33:29;16.30;;;8.60;;
24995;SDS011;13016;52.162;21.034;2024-01-16T17:39:29;15.80;;;8.10;;
24995;SDS011;13016;52.162;21.034;2024-01-16T17:45:30;17.70;;;9.10;;
24995;SDS011;13016;52.162;21.034;2024-01-16T17:51:30;19.60;;;9.30;;
24995;SDS011;13016;52.162;21.034;2024-01-16T17:57:31;20.10;;;10.00;;
24995;SDS011;13016;52.162;21.034;2024-01-16T18:03:31;22.30;;;9.90;;
24995;SDS011;13016;52.162;21.034;2024-01-16T18:09:31;23.90;;;10.70;;
24995;SDS011;13016;52.162;21.034;2024-01-16T18:15:31;24.00;;;11.20;;
24995;SDS011;13016;52.162;21.034;2024-01-16T18:21:32;23.10;;;10.80;;
24995;SDS011;13016;52.162;21.034;2024-01-16T18:27:32;24.90;;;12.10;;
24995;SDS011;13016;52.162;21.034;2024-01-16T18:33:33;25.90;;;11.70;;
24995;SDS011;13016;52.162;21.034;2024-01-16T18:39:36;25.50;;;11.90;;
24995;SDS011;13016;52.162;21.034;2024-01-16T18:45:37;23.80;;;12.70;;
24995;SDS011;13016;52.162;21.034;2024-01-16T18:51:37;25.10;;;12.60;;
24995;SDS011;13016;52.162;21.034;2024-01-16T18:57:40;22.50;;;11.60;;
24995;SDS011;13016;52.162;21.034;2024-01-16T19:03:41;24.90;;;11.70;;
24995;SDS011;13016;52.162;21.034;2024-01-16T19:09:41;25.80;;;12.80;;
24995;SDS011;13016;52.162;21.034;2024-01-16T19:15:41;27.00;;;11.80;;
24995;SDS011;13016;52.162;21.034;2024-01-16T19:21:42;27.30;;;12.20;;
24995;SDS011;13016;52.162;21.034;2024-01-16T19:27:42;27.10;;;13.60;;
24995;SDS011;13016;52.162;21.034;2024-01-16T19:33:43;29.90;;;13.70;;
24995;SDS011;13016;52.162;21.034;2024-01-16T19:39:46;31.60;;;15.10;;
24995;SDS011;13016;52.162;21.034;2024-01-16T19:45:46;30.60;;;14.20;;
24995;SDS011;13016;52.162;21.034;2024-01-16T19:51:47;31.40;;;14.80;;
24995;SDS011;13016;52.162;21.034;2024-01-16T19:57:47;36.40;;;16.30;;
24995;SDS011;13016;52.162;21.034;2024-01-16T20:03:47;31.30;;;16.30;;
24995;SDS011;13016;52.162;21.034;2024-01-16T20:09:48;34.40;;;16.30;;
24995;SDS011;13016;52.162;21.034;2024-01-16T20:15:48;32.20;;;15.90;;
24995;SDS011;13016;52.162;21.034;2024-01-16T20:21:48;33.50;;;16.60;;
24995;SDS011;13016;52.162;21.034;2024-01-16T20:27:49;34.40;;;16.40;;
24995;SDS011;13016;52.162;21.034;2024-01-16T20:33:53;37.10;;;17.20;;
24995;SDS011;13016;52.162;21.034;2024-01-16T20:39:53;31.00;;;16.10;;
24995;SDS011;13016;52.162;21.034;2024-01-16T20:45:53;36.60;;;17.50;;
24995;SDS011;13016;52.162;21.034;2024-01-16T20:51:54;34.90;;;17.00;;
24995;SDS011;13016;52.162;21.034;2024-01-16T20:57:54;34.60;;;17.50;;
24995;SDS011;13016;52.162;21.034;2024-01-16T21:03:54;35.30;;;17.60;;
24995;SDS011;13016;52.162;21.034;2024-01-16T21:09:54;43.90;;;19.40;;
24995;SDS011;13016;52.162;21.034;2024-01-16T21:15:55;29.70;;;15.40;;
24995;SDS011;13016;52.162;21.034;2024-01-16T21:21:55;37.60;;;19.90;;
24995;SDS011;13016;52.162;21.034;2024-01-16T21:27:55;44.60;;;20.50;;
24995;SDS011;13016;52.162;21.034;2024-01-16T21:33:55;43.80;;;21.00;;
24995;SDS011;13016;52.162;21.034;2024-01-16T21:39:56;43.50;;;21.50;;
24995;SDS011;13016;52.162;21.034;2024-01-16T21:45:56;49.60;;;21.70;;
24995;SDS011;13016;52.162;21.034;2024-01-16T21:51:56;36.90;;;19.10;;
24995;SDS011;13016;52.162;21.034;2024-01-16T21:57:56;58.00;;;25.70;;
24995;SDS011;13016;52.162;21.034;2024-01-16T22:03:57;48.20;;;23.30;;
24995;SDS011;13016;52.162;21.034;2024-01-16T22:09:57;43.80;;;20.50;;
24995;SDS011;13016;52.162;21.034;2024-01-16T22:15:57;39.00;;;19.00;;
24995;SDS011;13016;52.162;21.034;2024-01-16T22:21:57;37.70;;;19.30;;
24995;SDS011;13016;52.162;21.034;2024-01-16T22:27:58;39.50;;;21.00;;
24995;SDS011;13016;52.162;21.034;2024-01-16T22:40:30;37.80;;;19.20;;
24995;SDS011;13016;52.162;21.034;2024-01-16T22:46:30;41.50;;;18.60;;
24995;SDS011;13016;52.162;21.034;2024-01-16T22:52:30;38.60;;;18.50;;
24995;SDS011;13016;52.162;21.034;2024-01-16T23:05:08;40.40;;;18.60;;
24995;SDS011;13016;52.162;21.034;2024-01-16T23:11:12;36.20;;;17.00;;
24995;SDS011;13016;52.162;21.034;2024-01-16T23:17:13;33.20;;;16.80;;
24995;SDS011;13016;52.162;21.034;2024-01-16T23:23:13;26.80;;;15.30;;
24995;SDS011;13016;52.162;21.034;2024-01-16T23:29:13;34.10;;;15.50;;
24995;SDS011;13016;52.162;21.034;2024-01-16T23:35:13;35.70;;;17.10;;
24995;SDS011;13016;52.162;21.034;2024-01-16T23:41:14;41.10;;;19.30;;
24995;SDS011;13016;52.162;21.034;2024-01-16T23:47:14;44.90;;;23.20;;
24995;SDS011;13016;52.162;21.034;2024-01-16T23:53:15;49.30;;;22.90;;
24995;SDS011;13016;52.162;21.034;2024-01-16T23:59:15;59.40;;;28.00;;
